Time;durP1;ratioP1;P1;durP2;ratioP2;P2;SDS_P1;SDS_P2;PMS_P1;PMS_P2;Temp;Humidity;BMP_temperature;BMP_pressure;BME280_temperature;BME280_humidity;BME280_pressure;Samples;Min_cycle;Max_cycle;Signal;HPM_P1;HPM_P2
2023/07/17 00:00:33;;;;;;;3.03;0.60;;;;;;;;;;5115106;28;20043;-75
2023/07/17 00:02:59;;;;;;;2.58;0.43;;;;;;;;;;5098641;28;20143;-75
2023/07/17 00:05:25;;;;;;;5.20;0.65;;;;;;;;;;5115608;28;20039;-75
2023/07/17 00:07:51;;;;;;;1.02;0.40;;;;;;;;;;5097514;28;20050;-75
2023/07/17 00:10:17;;;;;;;1.52;0.40;;;;;;;;;;5098325;28;20374;-75
2023/07/17 00:12:43;;;;;;;1.70;0.50;;;;;;;;;;5115647;28;20122;-76
2023/07/17 00:15:09;;;;;;;1.83;0.40;;;;;;;;;;5114533;28;20061;-75
2023/07/17 00:17:36;;;;;;;1.75;0.40;;;;;;;;;;5116121;28;20169;-75
2023/07/17 00:20:06;;;;;;;1.60;0.50;;;;;;;;;;5114479;28;20400;-75
2023/07/17 00:22:34;;;;;;;1.10;0.35;;;;;;;;;;5115199;28;20048;-75
2023/07/17 00:25:00;;;;;;;1.17;0.60;;;;;;;;;;5114430;28;20066;-75
2023/07/17 00:27:26;;;;;;;2.00;0.50;;;;;;;;;;5114319;28;20405;-75
2023/07/17 00:29:52;;;;;;;1.58;0.40;;;;;;;;;;5115236;28;20054;-75
2023/07/17 00:32:20;;;;;;;1.63;0.50;;;;;;;;;;5113995;28;20115;-75
2023/07/17 00:34:46;;;;;;;2.33;0.40;;;;;;;;;;5115423;28;20086;-76
2023/07/17 00:37:12;;;;;;;1.67;0.38;;;;;;;;;;5114184;28;20043;-75
2023/07/17 00:39:38;;;;;;;1.40;0.40;;;;;;;;;;5113812;28;20039;-76
2023/07/17 00:42:04;;;;;;;1.25;0.30;;;;;;;;;;5115042;28;20126;-76
2023/07/17 00:44:31;;;;;;;1.98;0.50;;;;;;;;;;5115498;28;20036;-76
2023/07/17 00:46:57;;;;;;;1.52;0.50;;;;;;;;;;5113890;28;20047;-76
2023/07/17 00:49:25;;;;;;;3.78;0.40;;;;;;;;;;5115389;28;20048;-75
2023/07/17 00:51:52;;;;;;;2.72;0.57;;;;;;;;;;5113872;28;20135;-75
2023/07/17 00:54:19;;;;;;;1.40;0.30;;;;;;;;;;5114669;28;20054;-76
2023/07/17 00:56:46;;;;;;;2.25;0.50;;;;;;;;;;5096606;28;20481;-76
2023/07/17 00:59:12;;;;;;;0.70;0.40;;;;;;;;;;5113743;28;20401;-75
2023/07/17 01:01:39;;;;;;;3.38;0.50;;;;;;;;;;5114062;28;20416;-75
2023/07/17 01:04:06;;;;;;;3.63;0.52;;;;;;;;;;5113537;28;20434;-76
2023/07/17 01:06:38;;;;;;;1.98;0.40;;;;;;;;;;5113602;28;20393;-75
2023/07/17 01:09:04;;;;;;;1.00;0.45;;;;;;;;;;5113580;28;20104;-76
2023/07/17 01:11:30;;;;;;;1.85;0.40;;;;;;;;;;5113308;28;20177;-76
2023/07/17 01:13:56;;;;;;;1.73;0.60;;;;;;;;;;5114498;28;20044;-76
2023/07/17 01:16:22;;;;;;;2.53;0.60;;;;;;;;;;5097115;28;20058;-76
2023/07/17 01:18:49;;;;;;;2.65;0.50;;;;;;;;;;5113693;28;20047;-76
2023/07/17 01:21:16;;;;;;;2.05;0.50;;;;;;;;;;5113375;28;20389;-76
2023/07/17 01:23:44;;;;;;;2.03;0.73;;;;;;;;;;5114298;28;20054;-76
2023/07/17 01:26:14;;;;;;;2.65;0.80;;;;;;;;;;5112704;28;20485;-75
2023/07/17 01:28:40;;;;;;;2.83;0.70;;;;;;;;;;5114196;28;20497;-76
2023/07/17 01:31:06;;;;;;;4.47;0.80;;;;;;;;;;5113276;28;20122;-75
2023/07/17 01:33:33;;;;;;;2.45;0.68;;;;;;;;;;5113186;28;20051;-76
2023/07/17 01:36:00;;;;;;;1.48;0.57;;;;;;;;;;5114006;28;20431;-75
2023/07/17 01:38:26;;;;;;;1.90;0.90;;;;;;;;;;5113180;28;20131;-76
2023/07/17 01:40:52;;;;;;;4.10;1.05;;;;;;;;;;5113144;28;20039;-75
2023/07/17 01:43:18;;;;;;;2.10;0.60;;;;;;;;;;5114014;28;20130;-75
2023/07/17 01:45:44;;;;;;;1.17;0.65;;;;;;;;;;5112717;28;20484;-76
2023/07/17 01:48:10;;;;;;;4.55;0.70;;;;;;;;;;5114021;28;20044;-76
2023/07/17 01:50:37;;;;;;;3.83;1.02;;;;;;;;;;5112990;28;20400;-76
2023/07/17 01:53:03;;;;;;;4.00;1.20;;;;;;;;;;5113382;28;20050;-75
2023/07/17 01:55:29;;;;;;;1.88;0.60;;;;;;;;;;5113260;28;20052;-75
2023/07/17 01:57:59;;;;;;;2.05;0.82;;;;;;;;;;5113896;28;20047;-75
2023/07/17 02:00:25;;;;;;;2.28;0.80;;;;;;;;;;5112810;28;20472;-75
2023/07/17 02:02:51;;;;;;;1.63;0.68;;;;;;;;;;5095860;28;20196;-75
2023/07/17 02:05:17;;;;;;;1.88;0.80;;;;;;;;;;5117688;28;20043;-76
2023/07/17 02:07:43;;;;;;;1.88;0.80;;;;;;;;;;5100078;28;20040;-75
2023/07/17 02:10:10;;;;;;;2.83;0.70;;;;;;;;;;5117989;28;20043;-75
2023/07/17 02:12:36;;;;;;;2.35;0.60;;;;;;;;;;5117971;28;20055;-75
2023/07/17 02:15:02;;;;;;;4.22;1.13;;;;;;;;;;5116364;28;20055;-75
2023/07/17 02:17:28;;;;;;;4.10;0.98;;;;;;;;;;5118112;28;20074;-75
2023/07/17 02:19:54;;;;;;;4.00;0.90;;;;;;;;;;5117799;28;20051;-75
2023/07/17 02:22:20;;;;;;;4.50;1.60;;;;;;;;;;5116746;28;20083;-75
2023/07/17 02:24:47;;;;;;;3.42;0.90;;;;;;;;;;5117568;28;20036;-75
2023/07/17 02:27:13;;;;;;;3.85;0.93;;;;;;;;;;5116632;28;20120;-75
2023/07/17 02:29:39;;;;;;;4.18;0.98;;;;;;;;;;5116626;28;20054;-75
2023/07/17 02:32:05;;;;;;;3.33;0.90;;;;;;;;;;5100402;28;20055;-75
2023/07/17 02:34:31;;;;;;;1.83;0.55;;;;;;;;;;5117474;28;20126;-75
2023/07/17 02:36:57;;;;;;;4.25;0.77;;;;;;;;;;5117462;28;20480;-75
2023/07/17 02:39:23;;;;;;;3.20;0.82;;;;;;;;;;5118210;28;20142;-75
2023/07/17 02:41:50;;;;;;;4.53;0.80;;;;;;;;;;5117327;28;20051;-75
2023/07/17 02:44:16;;;;;;;4.00;1.00;;;;;;;;;;5117046;28;20063;-75
2023/07/17 02:46:42;;;;;;;1.30;0.50;;;;;;;;;;5117255;28;20086;-75
2023/07/17 02:49:11;;;;;;;3.20;0.68;;;;;;;;;;5116308;28;20050;-75
2023/07/17 02:51:37;;;;;;;3.20;0.80;;;;;;;;;;5116210;28;20509;-75
2023/07/17 02:54:03;;;;;;;2.80;0.90;;;;;;;;;;5116136;28;20337;-75
2023/07/17 02:56:30;;;;;;;2.20;0.70;;;;;;;;;;5116926;28;20036;-75
2023/07/17 02:58:56;;;;;;;1.85;0.80;;;;;;;;;;5116501;28;20369;-75
2023/07/17 03:01:22;;;;;;;3.65;0.80;;;;;;;;;;5099723;28;20043;-76
2023/07/17 03:03:48;;;;;;;3.17;0.75;;;;;;;;;;5116578;28;20096;-75
2023/07/17 03:06:14;;;;;;;2.58;0.85;;;;;;;;;;5098669;28;20124;-75
2023/07/17 03:08:40;;;;;;;3.67;1.20;;;;;;;;;;5115699;28;20043;-75
2023/07/17 03:11:06;;;;;;;2.17;1.27;;;;;;;;;;5098812;28;20496;-75
2023/07/17 03:13:32;;;;;;;3.13;0.90;;;;;;;;;;5115823;28;20052;-75
2023/07/17 03:15:59;;;;;;;3.67;1.65;;;;;;;;;;5114489;28;20058;-75
2023/07/17 03:18:26;;;;;;;1.88;1.17;;;;;;;;;;5116209;28;20420;-75
2023/07/17 03:20:52;;;;;;;2.25;1.40;;;;;;;;;;5116821;28;20358;-76
2023/07/17 03:23:18;;;;;;;1.98;1.20;;;;;;;;;;5117143;28;20040;-75
2023/07/17 03:25:44;;;;;;;3.47;2.00;;;;;;;;;;5115354;28;20044;-75
2023/07/17 03:28:10;;;;;;;4.05;1.60;;;;;;;;;;5116507;28;20052;-75
2023/07/17 03:30:36;;;;;;;5.72;1.88;;;;;;;;;;5115967;28;20055;-75
2023/07/17 03:33:03;;;;;;;5.97;1.60;;;;;;;;;;5116223;28;20122;-75
2023/07/17 03:35:29;;;;;;;2.28;1.80;;;;;;;;;;5116298;28;20085;-75
2023/07/17 03:37:55;;;;;;;3.47;1.67;;;;;;;;;;5115287;28;20565;-75
2023/07/17 03:40:21;;;;;;;4.10;1.38;;;;;;;;;;5116994;28;20043;-75
2023/07/17 03:42:47;;;;;;;2.60;1.50;;;;;;;;;;5116022;28;20048;-75
2023/07/17 03:45:13;;;;;;;2.85;1.23;;;;;;;;;;5115976;28;20040;-76
2023/07/17 03:47:39;;;;;;;5.32;2.00;;;;;;;;;;5115915;28;20055;-75
2023/07/17 03:50:05;;;;;;;3.53;1.15;;;;;;;;;;5116064;28;20051;-75
2023/07/17 03:52:31;;;;;;;3.58;1.13;;;;;;;;;;5116006;28;20051;-75
2023/07/17 03:54:58;;;;;;;5.18;1.58;;;;;;;;;;5114361;28;20386;-75
2023/07/17 03:57:24;;;;;;;2.75;1.23;;;;;;;;;;5114859;28;20135;-75
2023/07/17 03:59:56;;;;;;;4.00;1.10;;;;;;;;;;5097885;28;20108;-75
2023/07/17 04:02:22;;;;;;;3.17;1.00;;;;;;;;;;5116596;28;20047;-75
2023/07/17 04:04:50;;;;;;;4.38;1.42;;;;;;;;;;5114531;28;20095;-75
2023/07/17 04:07:16;;;;;;;3.35;1.20;;;;;;;;;;5114732;28;20052;-76
2023/07/17 04:09:42;;;;;;;4.30;1.42;;;;;;;;;;5115820;28;20197;-76
2023/07/17 04:12:08;;;;;;;3.28;1.00;;;;;;;;;;5114418;28;20054;-76
2023/07/17 04:14:34;;;;;;;4.72;1.13;;;;;;;;;;5114804;28;20104;-75
2023/07/17 04:17:01;;;;;;;2.67;1.17;;;;;;;;;;5097251;28;20048;-75
2023/07/17 04:19:27;;;;;;;3.83;0.68;;;;;;;;;;5097530;28;20139;-75
2023/07/17 04:21:55;;;;;;;2.50;1.23;;;;;;;;;;5115330;28;20100;-75
2023/07/17 04:24:21;;;;;;;4.93;1.50;;;;;;;;;;5115067;28;20054;-76
2023/07/17 04:26:48;;;;;;;3.00;1.33;;;;;;;;;;5115255;28;20082;-75
2023/07/17 04:29:14;;;;;;;2.22;1.52;;;;;;;;;;5097105;28;20052;-75
2023/07/17 04:31:40;;;;;;;4.05;1.60;;;;;;;;;;5115700;28;20043;-75
2023/07/17 04:34:06;;;;;;;2.97;1.20;;;;;;;;;;5115110;28;20054;-75
2023/07/17 04:36:32;;;;;;;3.38;1.27;;;;;;;;;;5115085;28;20043;-75
2023/07/17 04:38:58;;;;;;;3.17;1.27;;;;;;;;;;5114842;28;20040;-75
2023/07/17 04:41:24;;;;;;;5.15;1.17;;;;;;;;;;5114986;28;20125;-75
2023/07/17 04:43:50;;;;;;;1.83;1.02;;;;;;;;;;5113912;28;20397;-75
2023/07/17 04:46:16;;;;;;;4.00;2.05;;;;;;;;;;5114832;28;20040;-75
2023/07/17 04:48:42;;;;;;;2.95;1.20;;;;;;;;;;5114719;28;20385;-75
2023/07/17 04:51:08;;;;;;;3.08;1.20;;;;;;;;;;5115644;28;20112;-75
2023/07/17 04:53:34;;;;;;;3.70;1.15;;;;;;;;;;5114759;28;20125;-75
2023/07/17 04:56:00;;;;;;;2.80;1.10;;;;;;;;;;5113780;28;20051;-75
2023/07/17 04:58:27;;;;;;;3.58;1.27;;;;;;;;;;5114382;28;20536;-75
2023/07/17 05:01:00;;;;;;;4.47;1.25;;;;;;;;;;5114697;28;20048;-75
2023/07/17 05:03:27;;;;;;;3.42;1.30;;;;;;;;;;5114564;28;20044;-75
2023/07/17 05:05:54;;;;;;;2.67;1.23;;;;;;;;;;5114475;28;20039;-75
2023/07/17 05:08:20;;;;;;;4.22;1.27;;;;;;;;;;5114584;28;20058;-75
2023/07/17 05:10:54;;;;;;;6.43;1.45;;;;;;;;;;5114501;28;20400;-75
2023/07/17 05:13:20;;;;;;;5.80;1.60;;;;;;;;;;5096529;28;20047;-75
2023/07/17 05:15:46;;;;;;;3.83;1.60;;;;;;;;;;5113373;28;20047;-74
2023/07/17 05:18:12;;;;;;;4.60;1.63;;;;;;;;;;5113349;28;20051;-76
2023/07/17 05:20:38;;;;;;;3.80;1.00;;;;;;;;;;5113355;28;20542;-75
2023/07/17 05:23:04;;;;;;;3.95;0.90;;;;;;;;;;5113055;28;20048;-74
2023/07/17 05:25:31;;;;;;;3.88;1.85;;;;;;;;;;5112718;28;20079;-75
2023/07/17 05:27:57;;;;;;;5.90;1.65;;;;;;;;;;5113159;28;20130;-75
2023/07/17 05:30:23;;;;;;;6.60;1.40;;;;;;;;;;5113213;28;20047;-74
2023/07/17 05:32:49;;;;;;;5.30;1.88;;;;;;;;;;5114324;28;20074;-74
2023/07/17 05:35:15;;;;;;;5.30;1.88;;;;;;;;;;5113353;28;20087;-74
2023/07/17 05:37:41;;;;;;;5.53;1.67;;;;;;;;;;5114846;28;20421;-74
2023/07/17 05:40:08;;;;;;;7.55;2.03;;;;;;;;;;5112800;28;20051;-74
2023/07/17 05:42:34;;;;;;;6.07;2.20;;;;;;;;;;5113868;28;20454;-74
2023/07/17 05:45:00;;;;;;;7.13;2.20;;;;;;;;;;5112954;28;20083;-74
2023/07/17 05:47:26;;;;;;;7.13;2.08;;;;;;;;;;5114555;28;20044;-74
2023/07/17 05:49:52;;;;;;;7.47;2.22;;;;;;;;;;5112898;28;20043;-74
2023/07/17 05:52:18;;;;;;;4.03;2.00;;;;;;;;;;5113797;28;20080;-74
2023/07/17 05:54:44;;;;;;;4.25;1.73;;;;;;;;;;5113873;28;20051;-74
2023/07/17 05:57:10;;;;;;;3.42;1.58;;;;;;;;;;5113633;28;20094;-75
2023/07/17 05:59:36;;;;;;;6.28;1.70;;;;;;;;;;5112830;28;20054;-75
2023/07/17 06:02:02;;;;;;;5.10;2.03;;;;;;;;;;5113171;28;20051;-75
2023/07/17 06:04:29;;;;;;;5.20;2.30;;;;;;;;;;5113039;28;20062;-75
2023/07/17 06:06:55;;;;;;;7.20;2.22;;;;;;;;;;5113733;28;20044;-74
2023/07/17 06:09:21;;;;;;;5.13;1.90;;;;;;;;;;5112768;28;20043;-75
2023/07/17 06:11:47;;;;;;;5.53;1.98;;;;;;;;;;5113734;28;20108;-75
2023/07/17 06:14:13;;;;;;;5.13;2.05;;;;;;;;;;5112748;28;20055;-74
2023/07/17 06:16:39;;;;;;;8.98;2.60;;;;;;;;;;5095014;28;20060;-75
2023/07/17 06:19:05;;;;;;;9.40;2.65;;;;;;;;;;5095658;28;20401;-75
2023/07/17 06:21:31;;;;;;;7.30;2.28;;;;;;;;;;5112595;28;20039;-75
2023/07/17 06:23:57;;;;;;;8.68;2.55;;;;;;;;;;5113086;28;20047;-75
2023/07/17 06:26:23;;;;;;;8.13;3.10;;;;;;;;;;5111988;28;20512;-75
2023/07/17 06:28:50;;;;;;;8.43;3.38;;;;;;;;;;5112492;28;20039;-75
2023/07/17 06:31:16;;;;;;;5.50;2.40;;;;;;;;;;5113424;28;20048;-75
2023/07/17 06:33:43;;;;;;;8.82;3.72;;;;;;;;;;5113452;28;20043;-74
2023/07/17 06:36:09;;;;;;;7.78;3.53;;;;;;;;;;5095930;28;20044;-74
2023/07/17 06:38:35;;;;;;;8.38;3.03;;;;;;;;;;5113585;28;20131;-75
2023/07/17 06:41:01;;;;;;;9.80;3.20;;;;;;;;;;5113457;28;20066;-74
2023/07/17 06:43:27;;;;;;;10.73;3.90;;;;;;;;;;5095544;28;20052;-74
2023/07/17 06:45:53;;;;;;;10.15;3.72;;;;;;;;;;5112416;28;20036;-75
2023/07/17 06:48:20;;;;;;;8.77;3.67;;;;;;;;;;5112494;28;20047;-75
2023/07/17 06:50:46;;;;;;;6.60;3.13;;;;;;;;;;5114646;28;20050;-75
2023/07/17 06:53:17;;;;;;;6.32;3.20;;;;;;;;;;5116199;28;20047;-75
2023/07/17 06:55:43;;;;;;;6.28;3.85;;;;;;;;;;5116514;28;20048;-75
2023/07/17 06:58:09;;;;;;;9.48;3.83;;;;;;;;;;5117090;28;20047;-75
2023/07/17 07:00:35;;;;;;;9.43;3.22;;;;;;;;;;5116105;28;20089;-75
2023/07/17 07:03:01;;;;;;;8.73;3.65;;;;;;;;;;5115997;28;20188;-74
2023/07/17 07:05:27;;;;;;;9.65;4.70;;;;;;;;;;5116783;28;20050;-74
2023/07/17 07:07:53;;;;;;;7.63;2.90;;;;;;;;;;5116900;28;20044;-75
2023/07/17 07:10:19;;;;;;;10.13;3.78;;;;;;;;;;5117700;28;20043;-75
2023/07/17 07:12:45;;;;;;;7.82;3.65;;;;;;;;;;5116815;28;20055;-75
2023/07/17 07:15:11;;;;;;;9.00;3.88;;;;;;;;;;5115739;28;20062;-75
2023/07/17 07:17:38;;;;;;;8.23;3.15;;;;;;;;;;5115025;28;20092;-74
2023/07/17 07:20:04;;;;;;;7.65;3.58;;;;;;;;;;5115652;28;20511;-74
2023/07/17 07:22:30;;;;;;;7.30;3.20;;;;;;;;;;5116646;28;20089;-75
2023/07/17 07:24:57;;;;;;;6.25;3.38;;;;;;;;;;5115532;28;20046;-75
2023/07/17 07:27:23;;;;;;;10.35;3.60;;;;;;;;;;5116532;28;20100;-75
2023/07/17 07:29:49;;;;;;;8.88;3.90;;;;;;;;;;5116975;28;20404;-75
2023/07/17 07:32:15;;;;;;;8.80;3.58;;;;;;;;;;5116451;28;20131;-75
2023/07/17 07:34:41;;;;;;;10.00;3.80;;;;;;;;;;5116111;28;20048;-75
2023/07/17 07:37:07;;;;;;;8.23;3.25;;;;;;;;;;5116183;28;20373;-75
2023/07/17 07:39:33;;;;;;;7.25;3.40;;;;;;;;;;5115317;28;20046;-76
2023/07/17 07:41:59;;;;;;;12.30;2.75;;;;;;;;;;5099187;28;20498;-75
2023/07/17 07:44:25;;;;;;;5.13;3.15;;;;;;;;;;5115801;28;20054;-75
2023/07/17 07:46:51;;;;;;;9.63;3.50;;;;;;;;;;5114832;28;20109;-75
2023/07/17 07:49:17;;;;;;;7.72;3.35;;;;;;;;;;5115820;28;20493;-75
2023/07/17 07:51:44;;;;;;;7.82;3.10;;;;;;;;;;5116014;28;20052;-75
2023/07/17 07:54:10;;;;;;;6.38;3.72;;;;;;;;;;5116022;28;20043;-75
2023/07/17 07:56:36;;;;;;;7.68;3.53;;;;;;;;;;5114814;28;20039;-76
2023/07/17 07:59:02;;;;;;;7.20;3.75;;;;;;;;;;5114921;28;20079;-75
2023/07/17 08:01:28;;;;;;;7.53;3.33;;;;;;;;;;5114615;28;20051;-75
2023/07/17 08:03:54;;;;;;;7.78;2.97;;;;;;;;;;5115689;28;20043;-75
2023/07/17 08:06:20;;;;;;;3.70;2.53;;;;;;;;;;5115613;28;20100;-75
2023/07/17 08:08:46;;;;;;;5.70;3.80;;;;;;;;;;5115894;28;20076;-75
2023/07/17 08:11:12;;;;;;;7.45;2.83;;;;;;;;;;5114742;28;20054;-75
2023/07/17 08:13:43;;;;;;;6.03;2.95;;;;;;;;;;5115457;28;20039;-75
2023/07/17 08:16:09;;;;;;;7.05;2.83;;;;;;;;;;5115559;28;20071;-75
2023/07/17 08:18:35;;;;;;;6.78;3.58;;;;;;;;;;5115487;28;20506;-75
2023/07/17 08:21:02;;;;;;;7.10;2.63;;;;;;;;;;5098294;28;20050;-75
2023/07/17 08:23:28;;;;;;;7.05;2.90;;;;;;;;;;5114400;28;20043;-75
2023/07/17 08:25:54;;;;;;;5.53;2.70;;;;;;;;;;5114164;28;20557;-75
2023/07/17 08:28:20;;;;;;;5.80;2.10;;;;;;;;;;5114885;28;20096;-75
2023/07/17 08:30:47;;;;;;;6.55;1.83;;;;;;;;;;5098174;28;20079;-75
2023/07/17 08:33:13;;;;;;;4.82;2.53;;;;;;;;;;5097038;28;20484;-75
2023/07/17 08:35:39;;;;;;;7.53;2.92;;;;;;;;;;5115068;28;20083;-75
2023/07/17 08:38:05;;;;;;;4.88;2.45;;;;;;;;;;5113769;28;20498;-76
2023/07/17 08:40:31;;;;;;;6.32;2.70;;;;;;;;;;5114791;28;20047;-76
2023/07/17 08:42:59;;;;;;;6.45;2.67;;;;;;;;;;5114758;28;20465;-75
2023/07/17 08:45:25;;;;;;;7.88;2.13;;;;;;;;;;5114899;28;20040;-77
2023/07/17 08:47:52;;;;;;;6.82;2.45;;;;;;;;;;5097089;28;20083;-75
2023/07/17 08:50:19;;;;;;;5.55;2.83;;;;;;;;;;5097187;28;20384;-74
2023/07/17 08:52:46;;;;;;;5.78;2.65;;;;;;;;;;5114669;28;20126;-74
2023/07/17 08:55:12;;;;;;;6.22;2.92;;;;;;;;;;5114500;28;20574;-74
2023/07/17 08:57:39;;;;;;;4.70;2.97;;;;;;;;;;5114781;28;20150;-75
2023/07/17 09:00:06;;;;;;;3.45;2.40;;;;;;;;;;5095870;28;20050;-74
2023/07/17 09:02:33;;;;;;;5.78;2.53;;;;;;;;;;5114121;28;20059;-75
2023/07/17 09:04:59;;;;;;;5.57;2.15;;;;;;;;;;5113760;28;20409;-75
2023/07/17 09:07:25;;;;;;;7.07;2.10;;;;;;;;;;5113301;28;20050;-76
2023/07/17 09:10:11;;;;;;;4.90;1.90;;;;;;;;;;5097044;28;20377;-78
2023/07/17 09:12:37;;;;;;;4.63;1.60;;;;;;;;;;5098708;28;20493;-75
2023/07/17 09:15:05;;;;;;;4.65;2.53;;;;;;;;;;5112512;28;20040;-77
2023/07/17 09:17:33;;;;;;;6.53;2.60;;;;;;;;;;5112824;28;20443;-74
2023/07/17 09:20:13;;;;;;;5.78;2.30;;;;;;;;;;5113909;28;20052;-74
2023/07/17 09:22:39;;;;;;;5.10;2.42;;;;;;;;;;5114004;28;20401;-75
2023/07/17 09:25:09;;;;;;;4.78;2.13;;;;;;;;;;5096416;28;20047;-75
2023/07/17 09:27:45;;;;;;;4.78;2.58;;;;;;;;;;5114044;28;20051;-76
2023/07/17 09:30:12;;;;;;;5.47;2.53;;;;;;;;;;5112773;28;20051;-75
2023/07/17 09:32:38;;;;;;;7.38;2.05;;;;;;;;;;5114737;28;20052;-75
2023/07/17 09:35:05;;;;;;;4.20;1.58;;;;;;;;;;5114146;28;20044;-75
2023/07/17 09:37:32;;;;;;;5.18;1.75;;;;;;;;;;5096648;28;20444;-75
2023/07/17 09:40:09;;;;;;;5.13;2.20;;;;;;;;;;5095916;28;20051;-75
2023/07/17 09:42:36;;;;;;;4.72;2.33;;;;;;;;;;5096972;28;20078;-75
2023/07/17 09:45:03;;;;;;;8.63;3.42;;;;;;;;;;5096108;28;20040;-74
2023/07/17 09:47:30;;;;;;;4.43;2.75;;;;;;;;;;5114493;28;20393;-75
2023/07/17 09:49:58;;;;;;;6.70;3.15;;;;;;;;;;5113287;28;20457;-75
2023/07/17 09:52:25;;;;;;;3.92;2.10;;;;;;;;;;5112837;28;20044;-74
2023/07/17 09:54:51;;;;;;;6.53;2.65;;;;;;;;;;5113611;28;20039;-75
2023/07/17 09:57:27;;;;;;;6.10;3.05;;;;;;;;;;5112765;28;20105;-75
2023/07/17 09:59:55;;;;;;;7.13;2.72;;;;;;;;;;5113206;28;20048;-76
2023/07/17 10:02:22;;;;;;;5.40;1.88;;;;;;;;;;5112700;28;20047;-76
2023/07/17 10:04:51;;;;;;;2.92;2.00;;;;;;;;;;5113303;28;20493;-76
2023/07/17 10:07:19;;;;;;;4.63;2.10;;;;;;;;;;5113079;28;20044;-76
2023/07/17 10:09:47;;;;;;;2.47;1.60;;;;;;;;;;5112771;28;20454;-75
2023/07/17 10:12:13;;;;;;;6.60;2.65;;;;;;;;;;5112753;28;20568;-76
2023/07/17 10:14:40;;;;;;;2.80;1.90;;;;;;;;;;5112691;28;20100;-76
2023/07/17 10:17:22;;;;;;;3.47;2.47;;;;;;;;;;5112160;28;20505;-76
2023/07/17 10:19:49;;;;;;;5.07;1.75;;;;;;;;;;5113542;28;20066;-76
2023/07/17 10:22:16;;;;;;;4.85;1.73;;;;;;;;;;5113830;28;20046;-76
2023/07/17 10:24:42;;;;;;;3.00;1.85;;;;;;;;;;5113605;28;20047;-76
2023/07/17 10:27:08;;;;;;;5.57;1.70;;;;;;;;;;5116600;28;20051;-75
2023/07/17 10:29:44;;;;;;;5.65;2.58;;;;;;;;;;5117726;28;20434;-75
2023/07/17 10:32:13;;;;;;;5.97;2.40;;;;;;;;;;5099334;28;20054;-75
2023/07/17 10:34:52;;;;;;;7.50;2.10;;;;;;;;;;5116534;28;20043;-76
2023/07/17 10:37:40;;;;;;;6.80;2.88;;;;;;;;;;5116511;28;20044;-76
2023/07/17 10:40:07;;;;;;;5.07;2.10;;;;;;;;;;5116813;28;20126;-76
2023/07/17 10:42:33;;;;;;;4.82;1.65;;;;;;;;;;5116446;28;20130;-75
2023/07/17 10:45:12;;;;;;;1.83;1.02;;;;;;;;;;5116263;28;20443;-75
2023/07/17 10:47:38;;;;;;;3.47;1.13;;;;;;;;;;5117618;28;20086;-75
2023/07/17 10:50:07;;;;;;;6.80;1.20;;;;;;;;;;5116292;28;20527;-76
2023/07/17 10:52:34;;;;;;;4.18;1.40;;;;;;;;;;5117233;28;20063;-76
2023/07/17 10:55:04;;;;;;;2.47;1.02;;;;;;;;;;5117197;28;20039;-76
2023/07/17 10:57:31;;;;;;;3.90;1.10;;;;;;;;;;5117649;28;20047;-75
2023/07/17 10:59:57;;;;;;;3.33;1.20;;;;;;;;;;5116927;28;20365;-75
2023/07/17 11:02:26;;;;;;;2.85;0.82;;;;;;;;;;5116007;28;20047;-76
2023/07/17 11:04:58;;;;;;;4.22;0.88;;;;;;;;;;5116898;28;20164;-76
2023/07/17 11:07:29;;;;;;;2.08;0.70;;;;;;;;;;5116223;28;20056;-76
2023/07/17 11:09:55;;;;;;;2.80;0.85;;;;;;;;;;5116985;28;20044;-76
2023/07/17 11:12:25;;;;;;;2.10;0.60;;;;;;;;;;5099862;28;20555;-76
2023/07/17 11:14:54;;;;;;;4.05;0.77;;;;;;;;;;5117108;28;20040;-76
2023/07/17 11:17:21;;;;;;;3.42;1.17;;;;;;;;;;5098473;28;20058;-76
2023/07/17 11:19:47;;;;;;;2.15;0.70;;;;;;;;;;5098710;28;20046;-76
2023/07/17 11:22:15;;;;;;;2.08;0.60;;;;;;;;;;5098434;28;20051;-76
2023/07/17 11:24:41;;;;;;;2.42;0.65;;;;;;;;;;5098522;28;20047;-75
2023/07/17 11:27:07;;;;;;;2.58;0.70;;;;;;;;;;5098566;28;20048;-75
2023/07/17 11:29:40;;;;;;;2.50;0.70;;;;;;;;;;5115466;28;20047;-76
2023/07/17 11:32:06;;;;;;;5.03;1.23;;;;;;;;;;5115178;28;20130;-75
2023/07/17 11:34:35;;;;;;;1.58;0.73;;;;;;;;;;5116305;28;20051;-75
2023/07/17 11:37:03;;;;;;;4.32;0.60;;;;;;;;;;5115679;28;20131;-76
2023/07/17 11:39:32;;;;;;;1.92;0.80;;;;;;;;;;5115367;28;20508;-76
2023/07/17 11:41:58;;;;;;;2.90;1.02;;;;;;;;;;5115946;28;20058;-77
2023/07/17 11:44:32;;;;;;;3.70;0.80;;;;;;;;;;5116008;28;20039;-76
2023/07/17 11:47:08;;;;;;;2.42;1.02;;;;;;;;;;5114825;28;20044;-77
2023/07/17 11:49:34;;;;;;;2.85;0.65;;;;;;;;;;5115984;28;20133;-77
2023/07/17 11:52:01;;;;;;;4.13;0.80;;;;;;;;;;5098101;28;20048;-76
2023/07/17 11:54:41;;;;;;;1.42;0.50;;;;;;;;;;5115035;28;20039;-76
2023/07/17 11:57:08;;;;;;;3.13;0.70;;;;;;;;;;5116659;28;20055;-76
2023/07/17 11:59:34;;;;;;;2.67;0.65;;;;;;;;;;5115986;28;20047;-76
2023/07/17 12:02:00;;;;;;;2.78;0.50;;;;;;;;;;5114741;28;20047;-76
2023/07/17 12:04:33;;;;;;;2.08;0.50;;;;;;;;;;5115753;28;20047;-76
2023/07/17 12:07:02;;;;;;;2.28;0.57;;;;;;;;;;5115620;28;20063;-76
2023/07/17 12:09:28;;;;;;;1.38;0.60;;;;;;;;;;5114790;28;20044;-76
2023/07/17 12:11:54;;;;;;;2.55;0.60;;;;;;;;;;5115760;28;20048;-76
2023/07/17 12:14:20;;;;;;;7.60;0.50;;;;;;;;;;5114457;28;20141;-75
2023/07/17 12:16:46;;;;;;;7.97;0.77;;;;;;;;;;5097449;28;20404;-76
2023/07/17 12:19:12;;;;;;;4.25;0.50;;;;;;;;;;5114570;28;20050;-76
2023/07/17 12:21:39;;;;;;;1.67;0.60;;;;;;;;;;5114609;28;20044;-76
2023/07/17 12:24:05;;;;;;;3.75;1.05;;;;;;;;;;5097400;28;20096;-76
2023/07/17 12:26:31;;;;;;;2.45;1.00;;;;;;;;;;5115028;28;20073;-75
2023/07/17 12:28:57;;;;;;;2.25;1.10;;;;;;;;;;5115134;28;20047;-76
2023/07/17 12:31:24;;;;;;;4.47;1.98;;;;;;;;;;5114109;28;20054;-75
2023/07/17 12:33:50;;;;;;;3.40;1.00;;;;;;;;;;5113794;28;20051;-75
2023/07/17 12:36:16;;;;;;;7.55;1.23;;;;;;;;;;5114304;28;20051;-75
2023/07/17 12:38:42;;;;;;;2.10;1.05;;;;;;;;;;5114998;28;20058;-75
2023/07/17 12:41:08;;;;;;;1.77;0.80;;;;;;;;;;5114031;28;20047;-76
2023/07/17 12:43:34;;;;;;;3.97;0.95;;;;;;;;;;5114013;28;20079;-76
2023/07/17 12:46:01;;;;;;;1.40;0.70;;;;;;;;;;5114434;28;20051;-75
2023/07/17 12:48:27;;;;;;;4.75;0.95;;;;;;;;;;5114688;28;20130;-75
2023/07/17 12:50:53;;;;;;;2.42;1.10;;;;;;;;;;5113902;28;20050;-75
2023/07/17 12:53:19;;;;;;;1.98;0.90;;;;;;;;;;5113717;28;20481;-75
2023/07/17 12:55:45;;;;;;;5.32;1.67;;;;;;;;;;5114754;28;20116;-75
2023/07/17 12:58:11;;;;;;;2.50;1.40;;;;;;;;;;5115569;28;20067;-75
2023/07/17 13:00:37;;;;;;;3.42;1.90;;;;;;;;;;5113794;28;20047;-75
2023/07/17 13:03:03;;;;;;;4.85;1.95;;;;;;;;;;5113568;28;20100;-75
2023/07/17 13:05:29;;;;;;;3.15;1.50;;;;;;;;;;5113525;28;20054;-75
2023/07/17 13:07:56;;;;;;;3.58;1.50;;;;;;;;;;5114504;28;20065;-79
2023/07/17 13:10:22;;;;;;;2.67;1.70;;;;;;;;;;5114451;28;20043;-75
2023/07/17 13:12:48;;;;;;;5.05;1.77;;;;;;;;;;5114528;28;20048;-76
2023/07/17 13:15:14;;;;;;;2.80;1.85;;;;;;;;;;5113560;28;20130;-75
2023/07/17 13:17:40;;;;;;;3.78;1.48;;;;;;;;;;5096016;28;20416;-74
2023/07/17 13:20:06;;;;;;;1.75;0.70;;;;;;;;;;5114372;28;20112;-74
2023/07/17 13:22:32;;;;;;;3.08;0.30;;;;;;;;;;5113209;28;20091;-74
2023/07/17 13:24:59;;;;;;;2.38;0.30;;;;;;;;;;5114305;28;20089;-74
2023/07/17 13:27:25;;;;;;;1.17;0.30;;;;;;;;;;5114323;28;20039;-74
2023/07/17 13:29:51;;;;;;;0.73;0.40;;;;;;;;;;5114114;28;20051;-74
2023/07/17 13:32:17;;;;;;;0.95;0.20;;;;;;;;;;5113290;28;20081;-74
2023/07/17 13:34:43;;;;;;;0.40;0.20;;;;;;;;;;5113092;28;20557;-75
2023/07/17 13:37:09;;;;;;;1.85;0.20;;;;;;;;;;5114450;28;20058;-74
2023/07/17 13:39:35;;;;;;;2.13;0.20;;;;;;;;;;5113036;28;20126;-75
2023/07/17 13:42:02;;;;;;;0.47;0.17;;;;;;;;;;5114119;28;20043;-75
2023/07/17 13:44:28;;;;;;;0.80;0.30;;;;;;;;;;5113376;28;20078;-75
2023/07/17 13:46:55;;;;;;;1.25;0.20;;;;;;;;;;5112676;28;20039;-74
2023/07/17 13:49:22;;;;;;;0.20;0.10;;;;;;;;;;5112997;28;20047;-75
2023/07/17 13:51:48;;;;;;;0.60;0.20;;;;;;;;;;5113016;28;20047;-75
2023/07/17 13:54:14;;;;;;;0.60;0.25;;;;;;;;;;5113047;28;20040;-74
2023/07/17 13:56:41;;;;;;;0.43;0.20;;;;;;;;;;5113955;28;20082;-75
2023/07/17 13:59:07;;;;;;;2.15;0.20;;;;;;;;;;5113728;28;20047;-75
2023/07/17 14:01:34;;;;;;;1.77;0.20;;;;;;;;;;5119985;28;20051;-75
2023/07/17 14:04:02;;;;;;;1.83;0.20;;;;;;;;;;5120529;28;20498;-75
2023/07/17 14:06:29;;;;;;;1.52;0.30;;;;;;;;;;5119485;28;20385;-75
2023/07/17 14:08:55;;;;;;;1.15;0.30;;;;;;;;;;5120696;28;20051;-75
2023/07/17 14:11:21;;;;;;;1.08;0.30;;;;;;;;;;5119668;28;20396;-75
2023/07/17 14:13:47;;;;;;;2.78;0.50;;;;;;;;;;5119655;28;20054;-75
2023/07/17 14:16:13;;;;;;;2.28;0.45;;;;;;;;;;5119679;28;20071;-75
2023/07/17 14:18:39;;;;;;;1.63;0.50;;;;;;;;;;5120451;28;20376;-75
2023/07/17 14:21:06;;;;;;;1.48;0.63;;;;;;;;;;5120507;28;20138;-75
2023/07/17 14:23:33;;;;;;;3.17;0.60;;;;;;;;;;5119561;28;20043;-76
2023/07/17 14:25:59;;;;;;;1.25;0.65;;;;;;;;;;5120365;28;20527;-75
2023/07/17 14:28:25;;;;;;;2.03;0.50;;;;;;;;;;5102677;28;20055;-75
2023/07/17 14:30:53;;;;;;;2.40;0.60;;;;;;;;;;5120467;28;20040;-75
2023/07/17 14:33:19;;;;;;;2.28;0.60;;;;;;;;;;5102660;28;20056;-75
2023/07/17 14:35:45;;;;;;;3.78;0.93;;;;;;;;;;5119410;28;20454;-75
2023/07/17 14:38:11;;;;;;;3.83;0.65;;;;;;;;;;5102592;28;20075;-75
2023/07/17 14:40:38;;;;;;;2.00;0.73;;;;;;;;;;5120330;28;20053;-76